• Join FlightAware (Why Join?)
  • Login
  • US Flag 
12:49AM EDT


 

Airport Tracker/Info


-or-


 

Live Flight TrackerFlight Track Log ✈ UAL1421 ✈ 19-Jun-2014 ✈ KIAH - MNMG / MGA

Flight Track Log - Related Links

Times and Time Zones

All times are in EDT time to prevent confusion due to time zone crossing. See the UAL1421 flight status page for this flight to view local times or setup timezone preferences in your user account.

Time Position Orientation Groundspeed Altitude Reporting Facility
EDT Latitude Longitude Course Direction KTS MPH feet Rate Location/Type
08:20PM 29.9649 -95.3439 152° Southeast 176 203 200  Level FlightAware ADS-B (KHOU)
08:20PM 29.9541 -95.3375 149° Southeast 181 208 800 2,520 Climbing FlightAware ADS-B (KHOU)
08:20PM 29.9506 -95.3346 142° Southeast 184 212 1,000 1,800 Climbing FlightAware ADS-B (KHOU)
08:20PM 29.9474 -95.3312 135° Southeast 185 213 1,100 1,080 Climbing FlightAware ADS-B (KHOU)
08:20PM 29.9445 -95.3272 129° Southeast 191 220 1,200 1,080 Climbing FlightAware ADS-B (KHOU)
08:21PM 29.9417 -95.3232 126° Southeast 199 229 1,300 1,200 Climbing FlightAware ADS-B (KHOU)
08:21PM 29.9391 -95.3188 124° Southeast 203 234 1,400 1,200 Climbing FlightAware ADS-B (KHOU)
08:21PM 29.9307 -95.3045 124° Southeast 218 251 1,700 1,500 Climbing FlightAware ADS-B (KHOU)
08:21PM 29.9249 -95.2949 125° Southeast 228 262 2,000 2,100 Climbing FlightAware ADS-B (KHOU)
08:21PM 29.9185 -95.2847 126° Southeast 234 269 2,400 2,280 Climbing FlightAware ADS-B (KHOU)
08:21PM 29.9084 -95.2697 127° Southeast 237 273 3,000 2,220 Climbing FlightAware ADS-B (KHOU)
08:22PM 29.8984 -95.2547 127° Southeast 248 285 3,500 1,860 Climbing FlightAware ADS-B (KHOU)
08:22PM 29.8872 -95.2382 127° Southeast 264 304 3,900 2,280 Climbing FlightAware ADS-B (KHOU)
08:22PM 29.8762 -95.2206 125° Southeast 265 305 4,700 3,000 Climbing FlightAware ADS-B (KHOU)
08:22PM 29.8658 -95.2038 124° Southeast 265 305 5,400 3,000 Climbing FlightAware ADS-B (KHOU)
08:23PM 29.8550 -95.1858 124° Southeast 262 302 6,200 2,880 Climbing FlightAware ADS-B (KHOU)
08:23PM 29.8446 -95.1687 125° Southeast 264 304 6,900 2,580 Climbing FlightAware ADS-B (KHOU)
08:23PM 29.8342 -95.1518 125° Southeast 268 308 7,500 2,460 Climbing FlightAware ADS-B (KHOU)
08:23PM 29.8219 -95.1350 133° Southeast 273 314 8,100 2,400 Climbing FlightAware ADS-B (KHOU)
08:24PM 29.8071 -95.1202 142° Southeast 279 321 8,700 2,280 Climbing FlightAware ADS-B (KHOU)
08:24PM 29.7916 -95.1066 142° Southeast 282 325 9,300 2,400 Climbing FlightAware ADS-B (KHOU)
08:24PM 29.7759 -95.0928 142° Southeast 285 328 9,900 1,620 Climbing FlightAware ADS-B (KHOU)
08:25PM 29.7409 -95.0673 154° Southeast 315 362 10,500 1,200 Climbing FlightAware ADS-B (KHOU)
08:25PM 29.6979 -95.0484 159° South 342 394 11,100 1,680 Climbing FlightAware ADS-B (KHOU)
08:26PM 29.6522 -95.0292 159° South 353 406 12,200 2,100 Climbing FlightAware ADS-B (KHOU)
08:26PM 29.6053 -95.0093 159° South 360 414 13,200 1,800 Climbing FlightAware ADS-B (KHOU)
08:27PM 29.5577 -94.9892 159° South 374 430 14,000 1,560 Climbing FlightAware ADS-B (KHOU)
08:27PM 29.5110 -94.9696 159° South 385 443 14,800 1,980 Climbing FlightAware ADS-B (KHOU)
08:28PM 29.4592 -94.9477 159° South 385 443 16,000 2,160 Climbing FlightAware ADS-B (KHOU)
08:28PM 29.4076 -94.9258 159° South 390 449 17,000 1,620 Climbing FlightAware ADS-B (KHOU)
08:29PM 29.3546 -94.9035 159° South 398 458 17,700 1,500 Climbing FlightAware ADS-B (KHOU)
08:29PM 29.3023 -94.8814 158° South 407 468 18,500 1,500 Climbing FlightAware ADS-B (KHOU)
08:30PM 29.2528 -94.8487 142° Southeast 417 480 19,200 1,500 Climbing FlightAware ADS-B (KHOU)
08:30PM 29.2101 -94.8042 136° Southeast 422 486 20,000 1,500 Climbing FlightAware ADS-B (KHOU)
08:31PM 29.1675 -94.7587 136° Southeast 428 493 20,700 1,380 Climbing FlightAware ADS-B (KHOU)
08:31PM 29.1222 -94.7103 136° Southeast 436 502 21,400 1,200 Climbing FlightAware ADS-B (KHOU)
08:32PM 29.0732 -94.6577 136° Southeast 442 509 22,100 1,440 Climbing FlightAware ADS-B (KHOU)
08:32PM 29.0187 -94.5996 136° Southeast 444 511 23,100 1,500 Climbing FlightAware ADS-B (KHOU)
08:33PM 28.9727 -94.5506 136° Southeast 449 517 23,700 1,080 Climbing FlightAware ADS-B (KHOU)
08:33PM 28.9271 -94.5021 136° Southeast 457 526 24,200 960 Climbing FlightAware ADS-B (KHOU)
08:34PM 28.8818 -94.4540 136° Southeast 463 533 24,700 1,020 Climbing FlightAware ADS-B (KHOU)
08:34PM 28.8208 -94.3891 136° Southeast 469 540 25,400 1,080 Climbing FlightAware ADS-B (KHOU)
08:35PM 28.7775 -94.3432 136° Southeast 471 542 26,000 1,260 Climbing FlightAware ADS-B (KHOU)
08:35PM 28.7214 -94.2838 136° Southeast 471 542 26,700 1,260 Climbing FlightAware ADS-B (KHOU)
08:36PM 28.6601 -94.2190 137° Southeast 472 543 27,500 960 Climbing FlightAware ADS-B (KHOU)
08:37PM 28.6196 -94.1763 137° Southeast 475 547 27,800 1,020 Climbing FlightAware ADS-B (KHOU)
08:37PM 28.5577 -94.1112 137° Southeast 474 545 28,600 1,140 Climbing FlightAware ADS-B (KHOU)
08:38PM 28.4908 -94.0409 137° Southeast 476 548 29,300 1,080 Climbing FlightAware ADS-B (KHOU)
08:40PM 28.2783 -93.8180 137° Southeast 469 540 31,800 840 Climbing FlightAware ADS-B (KHOU)
08:42PM 28.0893 -93.6213 137° Southeast 477 549 33,000 480 Climbing FlightAware ADS-B (KHOU)
08:43PM 28.0386 -93.5687 137° Southeast 481 554 33,000  Level FlightAware ADS-B (KHOU)
08:43PM 28.0143 -93.5435 137° Southeast 481 554 33,000  Level FlightAware ADS-B (KHOU)
08:44PM 27.9275 -93.4533 137° Southeast 481 554 33,000  Level FlightAware ADS-B (KHOU)
08:46PM 27.6904 -93.2139 137° Southeast 481 554 33,000  Level FlightAware ADS-B (KHOU)
08:47PM 27.6061 -93.1692 153° Southeast 484 557 33,000  Level FlightAware ADS-B (KHOU)
08:48PM 27.4907 -93.1217 153° Southeast 484 557 33,000  Level FlightAware ADS-B (KHOU)
08:50PM 27.1652 -92.9904 160° South 486 559 33,000  Level FlightAware ADS-B (KHOU)
08:52PM 26.9332 -92.8964 160° South 487 560 33,000  Level FlightAware ADS-B (KHOU)
08:52PM 26.9254 -92.8933 160° South 487 560 33,000  Level FlightAware ADS-B (KHOU)
08:55PM 26.5846 -92.6976 148° Southeast 490 564 33,000  Level FlightAware ADS-B (KHOU)
09:28PM 22.5533 -90.4056 156° South 495 570 33,000  Level FlightAware ADS-B
09:28PM 22.5406 -90.3997 156° South 495 570 33,000  Level FlightAware ADS-B
09:29PM 22.4363 -90.3506 156° South 495 570 33,000  Level FlightAware ADS-B
09:31PM 22.1443 -90.2140 156° South 495 570 33,000  Level FlightAware ADS-B
09:32PM 22.1299 -90.2073 156° South 496 571 33,000  Level FlightAware ADS-B
09:32PM 22.0156 -90.1539 156° South 497 572 33,000  Level FlightAware ADS-B
09:33PM 22.0068 -90.1498 156° South 498 573 33,000  Level FlightAware ADS-B
09:33PM 21.8920 -90.0964 156° South 498 573 33,000  Level FlightAware ADS-B
09:34PM 21.8278 -90.0666 156° South 498 573 33,000  Level FlightAware ADS-B
09:34PM 21.7638 -90.0369 156° South 498 573 33,000  Level FlightAware ADS-B
09:35PM 21.6981 -90.0066 156° South 497 572 33,000  Level FlightAware ADS-B
09:35PM 21.6770 -89.9968 156° South 497 572 33,000  Level FlightAware ADS-B
09:36PM 21.5790 -89.9516 156° South 497 572 33,000  Level FlightAware ADS-B
09:36PM 21.5169 -89.9230 156° South 498 573 33,000  Level FlightAware ADS-B
09:37PM 21.4415 -89.8881 156° South 498 573 33,000  Level FlightAware ADS-B
09:37PM 21.3802 -89.8598 156° South 498 573 33,000  Level FlightAware ADS-B
09:38PM 21.3181 -89.8312 156° South 497 572 33,000  Level FlightAware ADS-B
09:38PM 21.2561 -89.8024 156° South 498 573 33,000  Level FlightAware ADS-B
09:39PM 21.1902 -89.7720 156° South 497 572 33,000  Level FlightAware ADS-B
09:39PM 21.1258 -89.7423 156° South 497 572 33,000  Level FlightAware ADS-B
09:40PM 21.0632 -89.7136 156° South 496 571 33,000  Level FlightAware ADS-B
09:40PM 20.9961 -89.6828 156° South 495 570 33,000  Level FlightAware ADS-B
09:41PM 20.9393 -89.6569 157° South 495 570 33,000  Level FlightAware ADS-B
09:41PM 20.8671 -89.6275 159° South 496 571 33,000  Level FlightAware ADS-B (MMUN / CUN)
09:42PM 20.7844 -89.5942 159° South 496 571 33,000  Level FlightAware ADS-B
09:43PM 20.7085 -89.5670 165° South 497 572 33,000  Level FlightAware ADS-B
09:43PM 20.6047 -89.5414 166° South 497 572 33,000  Level FlightAware ADS-B
09:44PM 20.5416 -89.5258 166° South 498 573 33,000  Level FlightAware ADS-B
09:44PM 20.4732 -89.5089 166° South 499 574 33,000  Level FlightAware ADS-B
09:45PM 20.4047 -89.4921 166° South 501 577 33,000  Level FlightAware ADS-B
09:45PM 20.3531 -89.4793 166° South 500 575 33,000  Level FlightAware ADS-B
09:46PM 20.2659 -89.4580 167° South 500 575 33,000  Level FlightAware ADS-B
09:46PM 20.1973 -89.4415 167° South 501 577 33,000  Level FlightAware ADS-B
09:47PM 20.1333 -89.4261 167° South 501 577 33,000  Level FlightAware ADS-B
09:48PM 20.0326 -89.3990 165° South 500 575 33,000  Level FlightAware ADS-B
09:48PM 19.9660 -89.3804 164° South 499 574 33,000  Level FlightAware ADS-B
09:49PM 19.8754 -89.3500 162° South 499 574 33,000  Level FlightAware ADS-B
09:49PM 19.8110 -89.3259 158° South 498 573 33,000  Level FlightAware ADS-B
09:50PM 19.7480 -89.2990 157° South 498 573 33,000  Level FlightAware ADS-B
09:50PM 19.6859 -89.2717 156° South 497 572 33,000  Level FlightAware ADS-B
09:51PM 19.6322 -89.2473 156° South 498 573 33,000  Level FlightAware ADS-B
09:51PM 19.5547 -89.2123 156° South 498 573 33,000  Level FlightAware ADS-B
09:52PM 19.4916 -89.1839 156° South 498 573 33,000  Level FlightAware ADS-B
09:55PM 19.0314 -88.9864 156° South 498 573 33,000  Level FlightAware ADS-B
09:56PM 18.9777 -88.9637 156° South 498 573 33,000  Level FlightAware ADS-B
09:56PM 18.9503 -88.9521 156° South 498 573 33,000  Level FlightAware ADS-B
09:57PM 18.7805 -88.8804 158° South 501 577 33,000  Level FlightAware ADS-B
09:57PM 18.7796 -88.8800 158° South 501 577 33,000  Level FlightAware ADS-B
09:59PM 18.5620 -88.7882 158° South 501 577 33,000  Level FlightAware ADS-B
10:03PM 18.1052 -88.5959 158° South 496 571 33,000  Level FlightAware ADS-B
10:03PM 18.0431 -88.5699 158° South 497 572 33,000  Level FlightAware ADS-B
10:04PM 17.9713 -88.5398 158° South 497 572 33,000  Level FlightAware ADS-B
10:05PM 17.8541 -88.4908 158° South 498 573 33,000  Level FlightAware ADS-B
10:05PM 17.8078 -88.4715 158° South 499 574 33,000  Level FlightAware ADS-B
10:23PM 15.5033 -87.5216 158° South 497 572 33,000  Level FlightAware ADS-B (MHLM / SAP)
10:24PM 15.3585 -87.4625 158° South 496 571 33,000  Level FlightAware ADS-B (MHLM / SAP)
10:25PM 15.2245 -87.4083 158° South 495 570 33,000  Level FlightAware ADS-B (MHLM / SAP)
10:25PM 15.1561 -87.3839 161° South 493 567 33,000  Level FlightAware ADS-B (MHLM / SAP)
10:26PM 15.0767 -87.3569 161° South 492 566 33,000  Level FlightAware ADS-B (MHLM / SAP)
10:26PM 14.9980 -87.3296 161° South 491 565 33,000  Level FlightAware ADS-B (MHLM / SAP)
10:27PM 14.9290 -87.3054 161° South 491 565 33,000  Level FlightAware ADS-B (MHLM / SAP)
10:27PM 14.8919 -87.2923 161° South 490 564 33,000  Level FlightAware ADS-B (MHLM / SAP)
10:28PM 14.8299 -87.2704 161° South 491 565 33,000  Level FlightAware ADS-B (MHLM / SAP)
10:32PM 14.8109 -87.2637 160° South 492 566 33,000  Level FlightAware ADS-B (MHLM / SAP)
10:34PM 14.5972 -87.1750 158° South  Level Estimated
10:35PM 14.4793 -87.1177 155° Southeast  Level FlightAware Approximate
10:36PM 14.3614 -87.0605 155° Southeast  Level FlightAware Approximate
10:37PM 14.2434 -87.0033 155° Southeast  Level FlightAware Approximate
10:38PM 14.1238 -86.9460 158° South  Level FlightAware Approximate
10:39PM 14.0030 -86.8957 158° South  Level FlightAware Approximate
10:40PM 13.8809 -86.8489 157° South  Level FlightAware Approximate
10:41PM 13.7613 -86.7957 157° South  Level FlightAware Approximate
10:42PM 13.6389 -86.7529 159° South  Level FlightAware Approximate
10:43PM 13.5171 -86.7052 159° South  Level FlightAware Approximate
10:44PM 13.3953 -86.6575 159° South  Level FlightAware Approximate
10:45PM 13.2736 -86.6098 159° South  Level FlightAware Approximate
10:46PM 13.1519 -86.5620 159° South  Level FlightAware Approximate
10:47PM 13.0302 -86.5142 159° South  Level FlightAware Approximate
10:48PM 12.9085 -86.4664 159° South  Level FlightAware Approximate
10:49PM 12.7882 -86.4151 157° South  Level FlightAware Approximate
10:50PM 12.6665 -86.3679 163° South  Level FlightAware Approximate
10:51PM 12.5417 -86.3295 163° South  Level FlightAware Approximate
10:52PM 12.4204 -86.2813 157° South  Level FlightAware Approximate
10:53PM 12.2991 -86.2329 154° Southeast  Level FlightAware Approximate
10:54PM 12.1806 -86.1785 166° South  Level FlightAware Approximate
10:55PM 12.1500 -86.1500 44° Northeast  Level FlightAware Approximate
10:56PM 12.1415 -86.1682 44° Northeast  Level Estimated
10:57PM 12.1415 -86.1682 44° Northeast  Level Estimated
10:58PM 12.1415 -86.1682 44° Northeast  Level Estimated
10:59PM 12.1415 -86.1682 44° Northeast  Level Estimated
11:00PM 12.1415 -86.1682 44° Northeast  Level Estimated
11:01PM 12.1415 -86.1682 44° Northeast  Level Estimated
11:02PM 12.1415 -86.1682 44° Northeast  Level Estimated
11:03PM 12.1415 -86.1682 44° Northeast  Level Estimated
11:04PM 12.1415 -86.1682 44° Northeast  Level Estimated
11:05PM 12.1415 -86.1682 44° Northeast  Level Estimated
11:06PM 12.1415 -86.1682 44° Northeast  Level Estimated
11:07PM 12.1415 -86.1682 44° Northeast  Level Estimated
11:08PM 12.1415 -86.1682 44° Northeast  Level Estimated